sensor_id;sensor_type;location;lat;lon;timestamp;pressure;altitude;pressure_sealevel;temperature;humidity
36304;BME280;22335;49.800;8.596;2023-03-14T00:04:59;98629.41;;;13.50;74.11
36304;BME280;22335;49.800;8.596;2023-03-14T00:11:45;98631.13;;;13.54;73.45
36304;BME280;22335;49.800;8.596;2023-03-14T00:18:28;98650.38;;;13.54;73.44
36304;BME280;22335;49.800;8.596;2023-03-14T00:25:12;98632.38;;;13.57;72.92
36304;BME280;22335;49.800;8.596;2023-03-14T00:31:57;98629.53;;;13.53;72.63
36304;BME280;22335;49.800;8.596;2023-03-14T00:38:43;98636.38;;;13.59;72.51
36304;BME280;22335;49.800;8.596;2023-03-14T00:45:27;98632.22;;;13.66;71.97
36304;BME280;22335;49.800;8.596;2023-03-14T00:52:12;98604.88;;;13.69;71.97
36304;BME280;22335;49.800;8.596;2023-03-14T00:58:56;98591.84;;;13.66;71.49
36304;BME280;22335;49.800;8.596;2023-03-14T01:05:40;98597.75;;;13.68;71.00
36304;BME280;22335;49.800;8.596;2023-03-14T01:12:25;98578.63;;;13.44;71.31
36304;BME280;22335;49.800;8.596;2023-03-14T01:19:10;98621.94;;;13.63;71.17
36304;BME280;22335;49.800;8.596;2023-03-14T01:25:53;98616.59;;;13.54;71.17
36304;BME280;22335;49.800;8.596;2023-03-14T01:32:39;98568.28;;;13.25;71.39
36304;BME280;22335;49.800;8.596;2023-03-14T01:39:23;98563.72;;;13.29;71.62
36304;BME280;22335;49.800;8.596;2023-03-14T01:46:19;98567.41;;;13.49;71.27
36304;BME280;22335;49.800;8.596;2023-03-14T01:53:06;98567.06;;;13.50;71.58
36304;BME280;22335;49.800;8.596;2023-03-14T01:59:54;98524.13;;;13.30;71.68
36304;BME280;22335;49.800;8.596;2023-03-14T02:06:47;98525.50;;;13.24;71.68
36304;BME280;22335;49.800;8.596;2023-03-14T02:13:39;98443.78;;;12.89;72.11
36304;BME280;22335;49.800;8.596;2023-03-14T02:20:52;98534.00;;;13.47;71.36
36304;BME280;22335;49.800;8.596;2023-03-14T02:27:39;98510.63;;;13.53;71.31
36304;BME280;22335;49.800;8.596;2023-03-14T02:34:23;98502.13;;;13.58;71.14
36304;BME280;22335;49.800;8.596;2023-03-14T02:41:08;98504.16;;;13.61;70.28
36304;BME280;22335;49.800;8.596;2023-03-14T02:48:02;98510.31;;;13.70;69.90
36304;BME280;22335;49.800;8.596;2023-03-14T02:54:50;98493.44;;;13.72;70.02
36304;BME280;22335;49.800;8.596;2023-03-14T03:01:34;98482.03;;;13.70;70.32
36304;BME280;22335;49.800;8.596;2023-03-14T03:08:20;98499.66;;;13.69;70.72
36304;BME280;22335;49.800;8.596;2023-03-14T03:15:06;98476.88;;;13.68;70.33
36304;BME280;22335;49.800;8.596;2023-03-14T03:21:51;98465.00;;;13.64;69.94
36304;BME280;22335;49.800;8.596;2023-03-14T03:28:36;98440.13;;;13.57;69.53
36304;BME280;22335;49.800;8.596;2023-03-14T03:35:20;98449.69;;;13.63;68.72
36304;BME280;22335;49.800;8.596;2023-03-14T03:42:04;98426.56;;;13.64;67.83
36304;BME280;22335;49.800;8.596;2023-03-14T04:03:52;98430.44;;;13.79;65.91
36304;BME280;22335;49.800;8.596;2023-03-14T04:10:36;98429.22;;;13.76;65.69
36304;BME280;22335;49.800;8.596;2023-03-14T04:17:26;98429.91;;;13.73;65.01
36304;BME280;22335;49.800;8.596;2023-03-14T04:24:11;98423.53;;;13.69;65.48
36304;BME280;22335;49.800;8.596;2023-03-14T04:30:56;98426.63;;;13.68;65.58
36304;BME280;22335;49.800;8.596;2023-03-14T04:37:41;98418.22;;;13.60;66.51
36304;BME280;22335;49.800;8.596;2023-03-14T04:44:27;98406.25;;;13.53;67.26
36304;BME280;22335;49.800;8.596;2023-03-14T04:51:11;98413.28;;;13.50;67.96
36304;BME280;22335;49.800;8.596;2023-03-14T04:57:55;98401.03;;;13.48;68.58
36304;BME280;22335;49.800;8.596;2023-03-14T05:04:41;98387.66;;;13.46;68.73
36304;BME280;22335;49.800;8.596;2023-03-14T05:11:36;98347.78;;;13.52;68.61
36304;BME280;22335;49.800;8.596;2023-03-14T05:18:38;98357.25;;;13.55;68.42
36304;BME280;22335;49.800;8.596;2023-03-14T05:25:45;98308.81;;;13.31;68.12
36304;BME280;22335;49.800;8.596;2023-03-14T05:32:45;98363.56;;;13.55;67.72
36304;BME280;22335;49.800;8.596;2023-03-14T05:39:47;98283.31;;;13.14;67.39
36304;BME280;22335;49.800;8.596;2023-03-14T05:46:55;98348.06;;;13.63;67.10
36304;BME280;22335;49.800;8.596;2023-03-14T05:53:53;98355.06;;;13.60;66.62
36304;BME280;22335;49.800;8.596;2023-03-14T06:00:55;98355.75;;;13.57;66.30
36304;BME280;22335;49.800;8.596;2023-03-14T06:08:08;98343.44;;;13.51;66.28
36304;BME280;22335;49.800;8.596;2023-03-14T06:14:52;98361.88;;;13.67;66.06
36304;BME280;22335;49.800;8.596;2023-03-14T06:21:36;98356.97;;;13.76;65.19
36304;BME280;22335;49.800;8.596;2023-03-14T06:28:20;98354.75;;;13.81;64.47
36304;BME280;22335;49.800;8.596;2023-03-14T06:35:07;98341.50;;;13.87;64.34
36304;BME280;22335;49.800;8.596;2023-03-14T06:41:54;98350.53;;;14.03;63.94
36304;BME280;22335;49.800;8.596;2023-03-14T06:48:39;98345.31;;;13.98;63.43
36304;BME280;22335;49.800;8.596;2023-03-14T06:55:23;98334.31;;;13.98;63.58
36304;BME280;22335;49.800;8.596;2023-03-14T07:02:10;98332.34;;;13.99;63.53
36304;BME280;22335;49.800;8.596;2023-03-14T07:08:57;98333.66;;;14.05;63.55
36304;BME280;22335;49.800;8.596;2023-03-14T07:15:42;98340.13;;;14.13;63.40
36304;BME280;22335;49.800;8.596;2023-03-14T07:22:28;98353.16;;;14.16;63.34
36304;BME280;22335;49.800;8.596;2023-03-14T07:29:13;98364.81;;;14.28;62.57
36304;BME280;22335;49.800;8.596;2023-03-14T07:35:56;98356.84;;;14.43;62.11
36304;BME280;22335;49.800;8.596;2023-03-14T07:42:41;98346.56;;;14.40;61.71
36304;BME280;22335;49.800;8.596;2023-03-14T07:49:31;98362.03;;;14.64;61.07
36304;BME280;22335;49.800;8.596;2023-03-14T07:56:15;98356.66;;;14.71;60.63
36304;BME280;22335;49.800;8.596;2023-03-14T08:02:58;98376.34;;;14.73;60.67
36304;BME280;22335;49.800;8.596;2023-03-14T08:09:43;98378.44;;;14.80;60.23
36304;BME280;22335;49.800;8.596;2023-03-14T08:16:26;98382.56;;;14.89;60.40
36304;BME280;22335;49.800;8.596;2023-03-14T08:23:10;98391.53;;;15.06;60.11
36304;BME280;22335;49.800;8.596;2023-03-14T08:29:54;98369.28;;;15.14;60.15
36304;BME280;22335;49.800;8.596;2023-03-14T08:36:38;98382.59;;;15.12;59.96
36304;BME280;22335;49.800;8.596;2023-03-14T08:43:22;98363.09;;;15.21;59.98
36304;BME280;22335;49.800;8.596;2023-03-14T08:50:08;98359.34;;;15.33;59.59
36304;BME280;22335;49.800;8.596;2023-03-14T08:56:56;98350.97;;;15.49;59.48
36304;BME280;22335;49.800;8.596;2023-03-14T09:03:40;98364.56;;;15.61;59.20
36304;BME280;22335;49.800;8.596;2023-03-14T09:10:24;98358.84;;;15.73;59.12
36304;BME280;22335;49.800;8.596;2023-03-14T09:17:08;98313.06;;;15.42;58.91
36304;BME280;22335;49.800;8.596;2023-03-14T09:23:51;98372.25;;;15.75;59.06
36304;BME280;22335;49.800;8.596;2023-03-14T09:30:36;98370.03;;;15.84;58.98
36304;BME280;22335;49.800;8.596;2023-03-14T09:37:19;98367.38;;;15.91;58.44
36304;BME280;22335;49.800;8.596;2023-03-14T09:44:05;98373.59;;;15.84;58.59
36304;BME280;22335;49.800;8.596;2023-03-14T09:50:56;98380.16;;;15.76;58.76
36304;BME280;22335;49.800;8.596;2023-03-14T09:57:41;98340.41;;;15.54;58.91
36304;BME280;22335;49.800;8.596;2023-03-14T10:04:28;98338.03;;;15.53;59.03
36304;BME280;22335;49.800;8.596;2023-03-14T10:11:15;98370.28;;;15.75;59.17
36304;BME280;22335;49.800;8.596;2023-03-14T10:18:00;98364.78;;;15.75;59.42
36304;BME280;22335;49.800;8.596;2023-03-14T10:24:46;98357.34;;;15.79;59.24
36304;BME280;22335;49.800;8.596;2023-03-14T10:31:48;98361.19;;;15.71;59.73
36304;BME280;22335;49.800;8.596;2023-03-14T10:38:36;98356.75;;;15.66;59.71
36304;BME280;22335;49.800;8.596;2023-03-14T10:45:31;98361.84;;;15.41;60.58
36304;BME280;22335;49.800;8.596;2023-03-14T10:52:21;98364.94;;;15.36;61.30
36304;BME280;22335;49.800;8.596;2023-03-14T10:59:13;98360.91;;;15.30;61.48
36304;BME280;22335;49.800;8.596;2023-03-14T11:05:59;98364.13;;;15.13;62.14
36304;BME280;22335;49.800;8.596;2023-03-14T11:12:57;98370.09;;;14.95;62.67
36304;BME280;22335;49.800;8.596;2023-03-14T11:20:12;98388.38;;;14.84;63.60
36304;BME280;22335;49.800;8.596;2023-03-14T11:27:04;98396.63;;;14.84;64.26
36304;BME280;22335;49.800;8.596;2023-03-14T11:33:58;98402.28;;;14.72;64.97
36304;BME280;22335;49.800;8.596;2023-03-14T11:40:48;98400.97;;;14.66;65.59
36304;BME280;22335;49.800;8.596;2023-03-14T11:47:37;98406.56;;;14.69;65.99
36304;BME280;22335;49.800;8.596;2023-03-14T11:54:33;98418.50;;;14.77;66.06
36304;BME280;22335;49.800;8.596;2023-03-14T12:01:20;98427.47;;;14.93;65.33
36304;BME280;22335;49.800;8.596;2023-03-14T12:08:44;98469.28;;;14.99;64.78
36304;BME280;22335;49.800;8.596;2023-03-14T12:15:31;98515.84;;;14.88;63.64
36304;BME280;22335;49.800;8.596;2023-03-14T12:22:24;98543.09;;;14.42;62.68
36304;BME280;22335;49.800;8.596;2023-03-14T12:29:15;98608.69;;;14.56;60.21
36304;BME280;22335;49.800;8.596;2023-03-14T12:43:31;98677.13;;;14.14;56.14
36304;BME280;22335;49.800;8.596;2023-03-14T12:50:21;98701.47;;;13.99;56.33
36304;BME280;22335;49.800;8.596;2023-03-14T12:57:20;98723.97;;;13.89;55.10
36304;BME280;22335;49.800;8.596;2023-03-14T13:04:10;98741.75;;;13.79;54.51
36304;BME280;22335;49.800;8.596;2023-03-14T13:10:55;98775.06;;;13.78;55.34
36304;BME280;22335;49.800;8.596;2023-03-14T13:17:40;98798.69;;;13.54;53.27
36304;BME280;22335;49.800;8.596;2023-03-14T13:24:26;98814.97;;;13.47;53.51
36304;BME280;22335;49.800;8.596;2023-03-14T13:31:22;98823.53;;;13.33;54.15
36304;BME280;22335;49.800;8.596;2023-03-14T13:38:19;98863.81;;;13.42;53.56
36304;BME280;22335;49.800;8.596;2023-03-14T13:45:04;98882.09;;;13.50;53.40
36304;BME280;22335;49.800;8.596;2023-03-14T13:51:49;98903.84;;;13.30;52.49
36304;BME280;22335;49.800;8.596;2023-03-14T13:58:37;98915.28;;;13.32;52.53
36304;BME280;22335;49.800;8.596;2023-03-14T14:05:22;98967.97;;;13.59;52.21
36304;BME280;22335;49.800;8.596;2023-03-14T14:12:13;98986.28;;;13.55;52.45
36304;BME280;22335;49.800;8.596;2023-03-14T14:19:00;99009.81;;;13.44;51.00
36304;BME280;22335;49.800;8.596;2023-03-14T14:25:45;99043.19;;;13.33;50.60
36304;BME280;22335;49.800;8.596;2023-03-14T14:32:35;99061.06;;;13.40;50.82
36304;BME280;22335;49.800;8.596;2023-03-14T14:39:23;99052.31;;;13.04;48.78
36304;BME280;22335;49.800;8.596;2023-03-14T14:46:08;99048.72;;;12.91;49.08
36304;BME280;22335;49.800;8.596;2023-03-14T14:52:56;99127.44;;;13.21;48.20
36304;BME280;22335;49.800;8.596;2023-03-14T14:59:43;99147.84;;;13.11;48.67
36304;BME280;22335;49.800;8.596;2023-03-14T15:06:28;99157.34;;;12.92;47.66
36304;BME280;22335;49.800;8.596;2023-03-14T15:13:13;99168.03;;;12.85;47.39
36304;BME280;22335;49.800;8.596;2023-03-14T15:19:58;99101.13;;;12.48;46.66
36304;BME280;22335;49.800;8.596;2023-03-14T15:26:41;99176.41;;;12.89;46.02
36304;BME280;22335;49.800;8.596;2023-03-14T15:33:26;99178.63;;;12.96;45.54
36304;BME280;22335;49.800;8.596;2023-03-14T15:40:13;99189.06;;;13.02;45.06
36304;BME280;22335;49.800;8.596;2023-03-14T15:46:56;99198.38;;;13.10;45.68
36304;BME280;22335;49.800;8.596;2023-03-14T15:53:40;99238.06;;;13.21;44.70
36304;BME280;22335;49.800;8.596;2023-03-14T16:00:26;99224.50;;;12.95;43.98
36304;BME280;22335;49.800;8.596;2023-03-14T16:07:10;99269.94;;;13.13;43.98
36304;BME280;22335;49.800;8.596;2023-03-14T16:13:53;99268.59;;;13.20;44.40
36304;BME280;22335;49.800;8.596;2023-03-14T16:20:38;99277.03;;;13.14;44.51
36304;BME280;22335;49.800;8.596;2023-03-14T16:27:28;99284.91;;;13.16;45.00
36304;BME280;22335;49.800;8.596;2023-03-14T16:34:12;99288.66;;;13.11;45.26
36304;BME280;22335;49.800;8.596;2023-03-14T16:40:59;99279.66;;;13.02;44.96
36304;BME280;22335;49.800;8.596;2023-03-14T16:47:44;99301.88;;;13.18;45.41
36304;BME280;22335;49.800;8.596;2023-03-14T16:54:27;99321.88;;;13.19;44.99
36304;BME280;22335;49.800;8.596;2023-03-14T17:01:14;99325.88;;;12.91;44.75
36304;BME280;22335;49.800;8.596;2023-03-14T17:07:59;99359.44;;;12.97;44.94
36304;BME280;22335;49.800;8.596;2023-03-14T17:14:42;99376.75;;;12.89;45.22
36304;BME280;22335;49.800;8.596;2023-03-14T17:21:27;99394.19;;;12.76;45.36
36304;BME280;22335;49.800;8.596;2023-03-14T17:28:10;99445.03;;;12.64;46.64
36304;BME280;22335;49.800;8.596;2023-03-14T17:34:54;99469.25;;;12.45;48.33
36304;BME280;22335;49.800;8.596;2023-03-14T17:41:39;99469.06;;;12.24;48.63
36304;BME280;22335;49.800;8.596;2023-03-14T17:48:22;99488.34;;;12.10;48.92
36304;BME280;22335;49.800;8.596;2023-03-14T17:55:07;99488.16;;;11.89;49.18
36304;BME280;22335;49.800;8.596;2023-03-14T18:01:53;99519.72;;;11.87;49.34
36304;BME280;22335;49.800;8.596;2023-03-14T18:08:38;99533.97;;;11.75;49.47
36304;BME280;22335;49.800;8.596;2023-03-14T18:15:24;99554.84;;;11.85;49.88
36304;BME280;22335;49.800;8.596;2023-03-14T18:22:09;99576.84;;;11.71;50.39
36304;BME280;22335;49.800;8.596;2023-03-14T18:28:53;99590.72;;;11.52;50.40
36304;BME280;22335;49.800;8.596;2023-03-14T18:35:37;99637.34;;;11.61;50.80
36304;BME280;22335;49.800;8.596;2023-03-14T18:42:22;99653.56;;;11.35;51.78
36304;BME280;22335;49.800;8.596;2023-03-14T18:49:05;99677.84;;;11.14;52.11
36304;BME280;22335;49.800;8.596;2023-03-14T18:55:53;99688.00;;;10.99;52.26
36304;BME280;22335;49.800;8.596;2023-03-14T19:02:38;99707.28;;;10.94;52.13
36304;BME280;22335;49.800;8.596;2023-03-14T19:09:21;99713.84;;;11.07;51.54
36304;BME280;22335;49.800;8.596;2023-03-14T19:16:05;99730.28;;;11.07;51.10
36304;BME280;22335;49.800;8.596;2023-03-14T19:22:51;99727.44;;;11.12;51.25
36304;BME280;22335;49.800;8.596;2023-03-14T19:29:38;99737.03;;;11.23;51.07
36304;BME280;22335;49.800;8.596;2023-03-14T19:36:23;99750.00;;;11.31;50.79
36304;BME280;22335;49.800;8.596;2023-03-14T19:43:11;99767.75;;;11.34;50.85
36304;BME280;22335;49.800;8.596;2023-03-14T19:49:54;99797.69;;;11.30;51.04
36304;BME280;22335;49.800;8.596;2023-03-14T19:56:38;99811.16;;;11.41;51.34
36304;BME280;22335;49.800;8.596;2023-03-14T20:03:23;99832.97;;;11.18;50.83
36304;BME280;22335;49.800;8.596;2023-03-14T20:10:08;99845.56;;;10.87;51.31
36304;BME280;22335;49.800;8.596;2023-03-14T20:16:52;99885.22;;;10.56;51.30
36304;BME280;22335;49.800;8.596;2023-03-14T20:23:37;99901.41;;;10.15;50.71
36304;BME280;22335;49.800;8.596;2023-03-14T20:30:21;99914.56;;;10.13;51.07
36304;BME280;22335;49.800;8.596;2023-03-14T20:37:05;99925.03;;;10.25;50.56
36304;BME280;22335;49.800;8.596;2023-03-14T20:43:50;99927.47;;;10.31;51.17
36304;BME280;22335;49.800;8.596;2023-03-14T20:50:34;99924.13;;;10.53;51.96
36304;BME280;22335;49.800;8.596;2023-03-14T20:57:17;99932.50;;;10.76;51.74
36304;BME280;22335;49.800;8.596;2023-03-14T21:04:03;99945.56;;;10.79;50.81
36304;BME280;22335;49.800;8.596;2023-03-14T21:10:47;99939.03;;;10.61;50.71
36304;BME280;22335;49.800;8.596;2023-03-14T21:17:31;99970.72;;;10.81;50.62
36304;BME280;22335;49.800;8.596;2023-03-14T21:24:15;99979.41;;;10.83;50.77
36304;BME280;22335;49.800;8.596;2023-03-14T21:31:03;99993.47;;;10.76;51.31
36304;BME280;22335;49.800;8.596;2023-03-14T21:37:47;99995.94;;;10.78;51.44
36304;BME280;22335;49.800;8.596;2023-03-14T21:44:32;99987.13;;;10.43;50.54
36304;BME280;22335;49.800;8.596;2023-03-14T21:51:17;99981.31;;;10.07;49.98
36304;BME280;22335;49.800;8.596;2023-03-14T21:58:01;100005.25;;;10.15;49.96
36304;BME280;22335;49.800;8.596;2023-03-14T22:04:46;100019.28;;;10.32;50.05
36304;BME280;22335;49.800;8.596;2023-03-14T22:11:29;100027.78;;;10.50;49.44
36304;BME280;22335;49.800;8.596;2023-03-14T22:18:13;100037.19;;;10.63;49.55
36304;BME280;22335;49.800;8.596;2023-03-14T22:24:58;100056.03;;;10.83;48.99
36304;BME280;22335;49.800;8.596;2023-03-14T22:31:42;100065.41;;;10.96;49.33
36304;BME280;22335;49.800;8.596;2023-03-14T22:38:25;100077.06;;;11.20;48.99
36304;BME280;22335;49.800;8.596;2023-03-14T22:45:10;100089.88;;;11.25;48.27
36304;BME280;22335;49.800;8.596;2023-03-14T22:51:54;100068.00;;;11.06;48.63
36304;BME280;22335;49.800;8.596;2023-03-14T22:58:37;100110.97;;;11.24;48.76
36304;BME280;22335;49.800;8.596;2023-03-14T23:05:22;100119.63;;;11.31;49.16
36304;BME280;22335;49.800;8.596;2023-03-14T23:12:06;100108.59;;;11.18;49.18
36304;BME280;22335;49.800;8.596;2023-03-14T23:18:50;100144.03;;;11.47;49.00
36304;BME280;22335;49.800;8.596;2023-03-14T23:25:35;100079.69;;;10.93;48.91
36304;BME280;22335;49.800;8.596;2023-03-14T23:32:32;100172.38;;;11.37;49.05
36304;BME280;22335;49.800;8.596;2023-03-14T23:39:16;100108.75;;;10.89;49.00
36304;BME280;22335;49.800;8.596;2023-03-14T23:46:01;100186.94;;;11.51;48.66
36304;BME280;22335;49.800;8.596;2023-03-14T23:52:46;100183.63;;;11.36;48.65
36304;BME280;22335;49.800;8.596;2023-03-14T23:59:30;100173.09;;;11.05;48.45
